sensor_id;sensor_type;location;lat;lon;timestamp;pressure;altitude;pressure_sealevel;temperature;humidity
23635;BME280;11994;51.038;16.974;2023-04-01T00:01:54;98338.85;;;9.77;86.77
23635;BME280;11994;51.038;16.974;2023-04-01T00:04:19;98338.45;;;9.78;86.89
23635;BME280;11994;51.038;16.974;2023-04-01T00:06:46;98341.19;;;9.83;86.96
23635;BME280;11994;51.038;16.974;2023-04-01T00:09:12;98342.31;;;9.81;87.05
23635;BME280;11994;51.038;16.974;2023-04-01T00:11:38;98342.17;;;9.77;87.14
23635;BME280;11994;51.038;16.974;2023-04-01T00:14:04;98342.86;;;9.71;87.02
23635;BME280;11994;51.038;16.974;2023-04-01T00:16:30;98338.73;;;9.66;87.03
23635;BME280;11994;51.038;16.974;2023-04-01T00:18:55;98335.17;;;9.64;87.08
23635;BME280;11994;51.038;16.974;2023-04-01T00:21:21;98333.95;;;9.64;87.30
23635;BME280;11994;51.038;16.974;2023-04-01T00:23:48;98329.32;;;9.66;87.51
23635;BME280;11994;51.038;16.974;2023-04-01T00:26:14;98330.94;;;9.68;87.57
23635;BME280;11994;51.038;16.974;2023-04-01T00:28:42;98331.95;;;9.69;87.42
23635;BME280;11994;51.038;16.974;2023-04-01T00:31:09;98330.95;;;9.68;87.40
23635;BME280;11994;51.038;16.974;2023-04-01T00:33:35;98333.02;;;9.68;87.37
23635;BME280;11994;51.038;16.974;2023-04-01T00:36:15;98327.33;;;9.74;87.55
23635;BME280;11994;51.038;16.974;2023-04-01T00:38:41;98326.64;;;9.74;87.38
23635;BME280;11994;51.038;16.974;2023-04-01T00:41:08;98329.04;;;9.74;87.54
23635;BME280;11994;51.038;16.974;2023-04-01T00:43:34;98326.49;;;9.73;87.49
23635;BME280;11994;51.038;16.974;2023-04-01T00:46:00;98326.19;;;9.72;87.52
23635;BME280;11994;51.038;16.974;2023-04-01T00:48:38;98326.65;;;9.77;87.83
23635;BME280;11994;51.038;16.974;2023-04-01T00:53:31;98327.02;;;9.90;87.83
23635;BME280;11994;51.038;16.974;2023-04-01T00:56:24;98327.64;;;9.95;87.96
23635;BME280;11994;51.038;16.974;2023-04-01T00:58:57;98327.27;;;9.99;87.92
23635;BME280;11994;51.038;16.974;2023-04-01T01:01:24;98331.66;;;9.98;87.72
23635;BME280;11994;51.038;16.974;2023-04-01T01:03:50;98328.80;;;9.96;87.72
23635;BME280;11994;51.038;16.974;2023-04-01T01:06:46;98327.86;;;9.97;87.82
23635;BME280;11994;51.038;16.974;2023-04-01T01:09:25;98325.53;;;10.02;88.07
23635;BME280;11994;51.038;16.974;2023-04-01T01:17:02;98326.23;;;9.95;87.92
23635;BME280;11994;51.038;16.974;2023-04-01T01:19:39;98321.13;;;9.89;88.07
23635;BME280;11994;51.038;16.974;2023-04-01T01:25:25;98321.16;;;9.95;88.40
23635;BME280;11994;51.038;16.974;2023-04-01T01:30:38;98323.05;;;9.99;88.57
23635;BME280;11994;51.038;16.974;2023-04-01T01:33:39;98325.14;;;9.99;88.51
23635;BME280;11994;51.038;16.974;2023-04-01T01:36:11;98325.39;;;9.98;88.53
23635;BME280;11994;51.038;16.974;2023-04-01T01:38:39;98318.75;;;9.98;88.53
23635;BME280;11994;51.038;16.974;2023-04-01T01:41:07;98320.58;;;10.00;88.62
23635;BME280;11994;51.038;16.974;2023-04-01T01:43:37;98319.19;;;10.03;88.66
23635;BME280;11994;51.038;16.974;2023-04-01T01:46:09;98321.02;;;10.05;88.77
23635;BME280;11994;51.038;16.974;2023-04-01T01:48:36;98318.80;;;10.08;88.67
23635;BME280;11994;51.038;16.974;2023-04-01T01:51:04;98319.95;;;10.09;88.71
23635;BME280;11994;51.038;16.974;2023-04-01T01:53:30;98318.13;;;10.14;88.62
23635;BME280;11994;51.038;16.974;2023-04-01T01:55:55;98321.45;;;10.17;88.61
23635;BME280;11994;51.038;16.974;2023-04-01T01:58:39;98317.50;;;10.19;88.56
23635;BME280;11994;51.038;16.974;2023-04-01T02:01:13;98314.17;;;10.22;88.66
23635;BME280;11994;51.038;16.974;2023-04-01T02:03:41;98315.48;;;10.21;88.56
23635;BME280;11994;51.038;16.974;2023-04-01T02:06:10;98315.67;;;10.20;88.49
23635;BME280;11994;51.038;16.974;2023-04-01T02:08:53;98316.67;;;10.21;88.27
23635;BME280;11994;51.038;16.974;2023-04-01T02:11:34;98320.07;;;10.23;88.37
23635;BME280;11994;51.038;16.974;2023-04-01T02:14:07;98316.04;;;10.24;88.32
23635;BME280;11994;51.038;16.974;2023-04-01T02:16:39;98315.86;;;10.27;88.40
23635;BME280;11994;51.038;16.974;2023-04-01T02:19:07;98309.90;;;10.27;88.34
23635;BME280;11994;51.038;16.974;2023-04-01T02:21:34;98309.28;;;10.29;88.37
23635;BME280;11994;51.038;16.974;2023-04-01T02:24:04;98307.69;;;10.32;88.35
23635;BME280;11994;51.038;16.974;2023-04-01T02:26:30;98306.39;;;10.37;88.39
23635;BME280;11994;51.038;16.974;2023-04-01T02:28:57;98305.11;;;10.38;88.39
23635;BME280;11994;51.038;16.974;2023-04-01T02:31:24;98302.82;;;10.38;88.37
23635;BME280;11994;51.038;16.974;2023-04-01T02:33:50;98305.26;;;10.39;88.42
23635;BME280;11994;51.038;16.974;2023-04-01T02:36:16;98309.38;;;10.40;88.43
23635;BME280;11994;51.038;16.974;2023-04-01T02:38:44;98303.11;;;10.42;88.38
23635;BME280;11994;51.038;16.974;2023-04-01T02:41:10;98307.39;;;10.48;88.44
23635;BME280;11994;51.038;16.974;2023-04-01T02:43:36;98305.69;;;10.50;88.37
23635;BME280;11994;51.038;16.974;2023-04-01T02:46:02;98308.96;;;10.51;88.28
23635;BME280;11994;51.038;16.974;2023-04-01T02:48:28;98308.02;;;10.52;88.21
23635;BME280;11994;51.038;16.974;2023-04-01T02:50:54;98311.39;;;10.51;88.23
23635;BME280;11994;51.038;16.974;2023-04-01T02:53:19;98314.70;;;10.51;88.29
23635;BME280;11994;51.038;16.974;2023-04-01T02:55:45;98318.44;;;10.54;88.15
23635;BME280;11994;51.038;16.974;2023-04-01T02:58:10;98318.73;;;10.54;88.09
23635;BME280;11994;51.038;16.974;2023-04-01T03:00:36;98318.21;;;10.54;88.22
23635;BME280;11994;51.038;16.974;2023-04-01T03:03:02;98322.35;;;10.55;88.20
23635;BME280;11994;51.038;16.974;2023-04-01T03:05:28;98319.75;;;10.55;88.17
23635;BME280;11994;51.038;16.974;2023-04-01T03:07:53;98321.69;;;10.51;88.01
23635;BME280;11994;51.038;16.974;2023-04-01T03:10:20;98324.59;;;10.49;88.07
23635;BME280;11994;51.038;16.974;2023-04-01T03:12:45;98327.27;;;10.51;88.03
23635;BME280;11994;51.038;16.974;2023-04-01T03:15:12;98330.11;;;10.51;87.94
23635;BME280;11994;51.038;16.974;2023-04-01T03:17:40;98332.49;;;10.52;88.19
23635;BME280;11994;51.038;16.974;2023-04-01T03:20:06;98330.31;;;10.53;88.18
23635;BME280;11994;51.038;16.974;2023-04-01T03:22:33;98332.00;;;10.48;87.91
23635;BME280;11994;51.038;16.974;2023-04-01T03:24:59;98331.98;;;10.42;88.05
23635;BME280;11994;51.038;16.974;2023-04-01T03:27:24;98333.41;;;10.41;88.21
23635;BME280;11994;51.038;16.974;2023-04-01T03:29:50;98333.91;;;10.42;88.19
23635;BME280;11994;51.038;16.974;2023-04-01T03:32:15;98331.89;;;10.41;88.29
23635;BME280;11994;51.038;16.974;2023-04-01T03:34:40;98334.27;;;10.39;88.40
23635;BME280;11994;51.038;16.974;2023-04-01T03:37:06;98332.42;;;10.37;88.48
23635;BME280;11994;51.038;16.974;2023-04-01T03:39:31;98334.21;;;10.36;88.55
23635;BME280;11994;51.038;16.974;2023-04-01T03:41:57;98338.25;;;10.33;88.43
23635;BME280;11994;51.038;16.974;2023-04-01T03:44:22;98339.52;;;10.29;88.56
23635;BME280;11994;51.038;16.974;2023-04-01T03:46:48;98341.34;;;10.27;88.85
23635;BME280;11994;51.038;16.974;2023-04-01T03:49:13;98341.09;;;10.29;89.07
23635;BME280;11994;51.038;16.974;2023-04-01T03:51:40;98344.47;;;10.31;89.16
23635;BME280;11994;51.038;16.974;2023-04-01T03:54:06;98345.36;;;10.33;89.30
23635;BME280;11994;51.038;16.974;2023-04-01T03:56:31;98345.58;;;10.36;89.29
23635;BME280;11994;51.038;16.974;2023-04-01T03:58:57;98345.14;;;10.38;89.37
23635;BME280;11994;51.038;16.974;2023-04-01T04:01:22;98346.30;;;10.39;89.31
23635;BME280;11994;51.038;16.974;2023-04-01T04:03:48;98351.73;;;10.39;89.33
23635;BME280;11994;51.038;16.974;2023-04-01T04:06:15;98354.11;;;10.37;89.34
23635;BME280;11994;51.038;16.974;2023-04-01T04:08:42;98355.54;;;10.30;89.20
23635;BME280;11994;51.038;16.974;2023-04-01T04:11:08;98353.57;;;10.27;89.41
23635;BME280;11994;51.038;16.974;2023-04-01T04:13:34;98356.84;;;10.25;89.37
23635;BME280;11994;51.038;16.974;2023-04-01T04:16:01;98357.93;;;10.17;89.50
23635;BME280;11994;51.038;16.974;2023-04-01T04:18:26;98358.42;;;10.15;89.73
23635;BME280;11994;51.038;16.974;2023-04-01T04:20:52;98357.25;;;10.07;89.73
23635;BME280;11994;51.038;16.974;2023-04-01T04:23:18;98358.44;;;10.04;89.95
23635;BME280;11994;51.038;16.974;2023-04-01T04:25:58;98360.85;;;10.01;89.97
23635;BME280;11994;51.038;16.974;2023-04-01T04:28:24;98364.67;;;10.01;90.26
23635;BME280;11994;51.038;16.974;2023-04-01T04:30:49;98364.89;;;10.00;90.38
23635;BME280;11994;51.038;16.974;2023-04-01T04:33:15;98366.23;;;9.95;90.34
23635;BME280;11994;51.038;16.974;2023-04-01T04:35:40;98366.64;;;9.94;90.60
23635;BME280;11994;51.038;16.974;2023-04-01T04:38:06;98365.46;;;9.96;90.79
23635;BME280;11994;51.038;16.974;2023-04-01T04:40:31;98363.01;;;10.00;90.73
23635;BME280;11994;51.038;16.974;2023-04-01T04:42:56;98362.94;;;9.98;90.85
23635;BME280;11994;51.038;16.974;2023-04-01T04:45:22;98364.52;;;9.98;91.03
23635;BME280;11994;51.038;16.974;2023-04-01T04:47:47;98364.05;;;9.97;91.16
23635;BME280;11994;51.038;16.974;2023-04-01T04:50:12;98365.79;;;10.00;91.30
23635;BME280;11994;51.038;16.974;2023-04-01T04:52:38;98369.82;;;10.03;91.25
23635;BME280;11994;51.038;16.974;2023-04-01T04:55:04;98366.03;;;10.06;91.53
23635;BME280;11994;51.038;16.974;2023-04-01T04:57:29;98365.89;;;10.09;91.50
23635;BME280;11994;51.038;16.974;2023-04-01T04:59:54;98368.23;;;10.07;91.41
23635;BME280;11994;51.038;16.974;2023-04-01T05:02:20;98369.50;;;10.07;91.43
23635;BME280;11994;51.038;16.974;2023-04-01T05:04:45;98368.76;;;10.04;91.31
23635;BME280;11994;51.038;16.974;2023-04-01T05:07:10;98374.59;;;10.02;91.42
23635;BME280;11994;51.038;16.974;2023-04-01T05:09:36;98376.09;;;10.00;91.40
23635;BME280;11994;51.038;16.974;2023-04-01T05:12:02;98376.39;;;9.98;91.56
23635;BME280;11994;51.038;16.974;2023-04-01T05:14:27;98376.76;;;9.97;91.69
23635;BME280;11994;51.038;16.974;2023-04-01T05:16:53;98378.67;;;9.94;91.57
23635;BME280;11994;51.038;16.974;2023-04-01T05:19:19;98379.34;;;9.95;91.77
23635;BME280;11994;51.038;16.974;2023-04-01T05:21:45;98378.48;;;9.98;92.06
23635;BME280;11994;51.038;16.974;2023-04-01T05:24:10;98376.26;;;10.00;92.10
23635;BME280;11994;51.038;16.974;2023-04-01T05:26:35;98377.40;;;9.98;92.05
23635;BME280;11994;51.038;16.974;2023-04-01T05:29:03;98377.75;;;9.99;92.18
23635;BME280;11994;51.038;16.974;2023-04-01T05:31:29;98378.58;;;9.99;92.17
23635;BME280;11994;51.038;16.974;2023-04-01T05:33:55;98380.13;;;10.03;92.19
23635;BME280;11994;51.038;16.974;2023-04-01T05:36:20;98377.48;;;10.04;92.31
23635;BME280;11994;51.038;16.974;2023-04-01T05:38:45;98378.79;;;10.02;92.26
23635;BME280;11994;51.038;16.974;2023-04-01T05:41:12;98379.45;;;10.03;92.56
23635;BME280;11994;51.038;16.974;2023-04-01T05:43:38;98378.73;;;10.07;92.59
23635;BME280;11994;51.038;16.974;2023-04-01T05:46:04;98378.02;;;10.11;92.45
23635;BME280;11994;51.038;16.974;2023-04-01T05:48:29;98381.20;;;10.10;92.52
23635;BME280;11994;51.038;16.974;2023-04-01T05:50:55;98375.90;;;10.07;92.61
23635;BME280;11994;51.038;16.974;2023-04-01T05:53:20;98376.22;;;10.09;92.74
23635;BME280;11994;51.038;16.974;2023-04-01T05:55:46;98380.77;;;10.11;92.78
23635;BME280;11994;51.038;16.974;2023-04-01T05:58:11;98382.47;;;10.13;92.79
23635;BME280;11994;51.038;16.974;2023-04-01T06:00:38;98381.45;;;10.15;92.92
23635;BME280;11994;51.038;16.974;2023-04-01T06:03:03;98379.15;;;10.16;93.08
23635;BME280;11994;51.038;16.974;2023-04-01T06:05:30;98385.11;;;10.15;93.05
23635;BME280;11994;51.038;16.974;2023-04-01T06:08:09;98388.56;;;10.13;92.91
23635;BME280;11994;51.038;16.974;2023-04-01T06:11:24;98385.65;;;10.12;93.08
23635;BME280;11994;51.038;16.974;2023-04-01T06:19:04;98396.11;;;10.09;93.51
23635;BME280;11994;51.038;16.974;2023-04-01T06:21:49;98401.17;;;10.12;93.51
23635;BME280;11994;51.038;16.974;2023-04-01T06:27:05;98401.19;;;10.15;93.82
23635;BME280;11994;51.038;16.974;2023-04-01T06:29:50;98404.66;;;10.12;93.71
23635;BME280;11994;51.038;16.974;2023-04-01T06:43:13;98406.92;;;10.26;94.37
23635;BME280;11994;51.038;16.974;2023-04-01T06:56:12;98412.52;;;10.29;94.81
23635;BME280;11994;51.038;16.974;2023-04-01T06:58:52;98413.67;;;10.34;95.15
23635;BME280;11994;51.038;16.974;2023-04-01T07:01:27;98416.66;;;10.37;95.20
23635;BME280;11994;51.038;16.974;2023-04-01T07:04:16;98417.08;;;10.39;95.16
23635;BME280;11994;51.038;16.974;2023-04-01T07:06:54;98415.09;;;10.40;95.10
23635;BME280;11994;51.038;16.974;2023-04-01T07:09:26;98419.66;;;10.43;95.28
23635;BME280;11994;51.038;16.974;2023-04-01T07:11:58;98424.55;;;10.43;95.24
23635;BME280;11994;51.038;16.974;2023-04-01T07:14:29;98423.16;;;10.43;95.31
23635;BME280;11994;51.038;16.974;2023-04-01T07:17:06;98427.27;;;10.44;95.32
23635;BME280;11994;51.038;16.974;2023-04-01T07:19:53;98425.85;;;10.45;95.22
23635;BME280;11994;51.038;16.974;2023-04-01T07:22:32;98425.23;;;10.43;95.52
23635;BME280;11994;51.038;16.974;2023-04-01T07:25:07;98425.99;;;10.42;95.63
23635;BME280;11994;51.038;16.974;2023-04-01T07:27:36;98426.88;;;10.45;95.58
23635;BME280;11994;51.038;16.974;2023-04-01T07:30:06;98426.96;;;10.47;95.68
23635;BME280;11994;51.038;16.974;2023-04-01T07:32:46;98431.15;;;10.47;95.72
23635;BME280;11994;51.038;16.974;2023-04-01T07:40:39;98436.15;;;10.48;95.73
23635;BME280;11994;51.038;16.974;2023-04-01T07:43:26;98436.17;;;10.51;95.79
23635;BME280;11994;51.038;16.974;2023-04-01T07:46:30;98435.73;;;10.53;95.82
23635;BME280;11994;51.038;16.974;2023-04-01T07:49:12;98439.95;;;10.56;96.03
23635;BME280;11994;51.038;16.974;2023-04-01T07:59:54;98444.83;;;10.70;96.13
23635;BME280;11994;51.038;16.974;2023-04-01T08:02:49;98448.97;;;10.70;96.11
23635;BME280;11994;51.038;16.974;2023-04-01T08:05:26;98448.95;;;10.71;96.17
23635;BME280;11994;51.038;16.974;2023-04-01T08:10:39;98452.90;;;10.76;95.83
23635;BME280;11994;51.038;16.974;2023-04-01T08:13:29;98457.89;;;10.74;95.90
23635;BME280;11994;51.038;16.974;2023-04-01T08:16:20;98461.46;;;10.76;96.05
23635;BME280;11994;51.038;16.974;2023-04-01T08:21:52;98468.48;;;10.82;95.94
23635;BME280;11994;51.038;16.974;2023-04-01T08:24:33;98462.31;;;10.82;95.68
23635;BME280;11994;51.038;16.974;2023-04-01T08:27:05;98464.19;;;10.83;95.63
23635;BME280;11994;51.038;16.974;2023-04-01T08:29:52;98467.63;;;10.84;95.76
23635;BME280;11994;51.038;16.974;2023-04-01T08:32:35;98472.41;;;10.83;95.54
23635;BME280;11994;51.038;16.974;2023-04-01T08:35:21;98469.79;;;10.83;95.43
23635;BME280;11994;51.038;16.974;2023-04-01T08:37:50;98470.73;;;10.85;95.47
23635;BME280;11994;51.038;16.974;2023-04-01T08:40:42;98467.69;;;10.87;95.55
23635;BME280;11994;51.038;16.974;2023-04-01T08:56:53;98475.98;;;11.01;95.22
23635;BME280;11994;51.038;16.974;2023-04-01T08:59:47;98476.21;;;11.04;95.15
23635;BME280;11994;51.038;16.974;2023-04-01T09:18:59;98483.05;;;11.38;94.16
23635;BME280;11994;51.038;16.974;2023-04-01T09:21:57;98490.35;;;11.43;94.00
23635;BME280;11994;51.038;16.974;2023-04-01T09:43:35;98495.20;;;11.81;92.27
23635;BME280;11994;51.038;16.974;2023-04-01T09:51:57;98496.11;;;12.02;91.18
23635;BME280;11994;51.038;16.974;2023-04-01T09:54:53;98500.48;;;11.99;90.78
23635;BME280;11994;51.038;16.974;2023-04-01T10:12:11;98510.20;;;12.13;89.95
23635;BME280;11994;51.038;16.974;2023-04-01T10:23:26;98506.52;;;12.45;87.90
23635;BME280;11994;51.038;16.974;2023-04-01T10:36:56;98512.61;;;12.43;88.57
23635;BME280;11994;51.038;16.974;2023-04-01T10:42:16;98515.73;;;12.62;87.85
23635;BME280;11994;51.038;16.974;2023-04-01T10:55:43;98507.77;;;12.51;86.93
23635;BME280;11994;51.038;16.974;2023-04-01T11:12:26;98517.29;;;12.68;86.70
23635;BME280;11994;51.038;16.974;2023-04-01T11:15:14;98519.48;;;12.86;86.80
23635;BME280;11994;51.038;16.974;2023-04-01T11:31:31;98529.80;;;13.22;83.04
23635;BME280;11994;51.038;16.974;2023-04-01T11:37:44;98542.18;;;13.03;83.42
23635;BME280;11994;51.038;16.974;2023-04-01T11:42:54;98540.66;;;12.67;85.47
23635;BME280;11994;51.038;16.974;2023-04-01T11:45:57;98536.33;;;12.51;86.41
23635;BME280;11994;51.038;16.974;2023-04-01T11:51:54;98537.51;;;12.58;88.27
23635;BME280;11994;51.038;16.974;2023-04-01T11:54:47;98535.36;;;12.71;88.19
23635;BME280;11994;51.038;16.974;2023-04-01T12:08:50;98560.05;;;13.21;86.21
23635;BME280;11994;51.038;16.974;2023-04-01T12:11:39;98565.12;;;13.04;86.28
23635;BME280;11994;51.038;16.974;2023-04-01T12:14:18;98568.64;;;12.83;86.77
23635;BME280;11994;51.038;16.974;2023-04-01T12:16:59;98568.47;;;12.62;87.05
23635;BME280;11994;51.038;16.974;2023-04-01T12:19:53;98574.52;;;12.40;87.54
23635;BME280;11994;51.038;16.974;2023-04-01T12:22:35;98575.85;;;12.23;87.94
23635;BME280;11994;51.038;16.974;2023-04-01T12:30:48;98562.46;;;12.24;89.52
23635;BME280;11994;51.038;16.974;2023-04-01T12:42:04;98579.44;;;12.25;89.80
23635;BME280;11994;51.038;16.974;2023-04-01T12:56:09;98579.66;;;12.42;89.64
23635;BME280;11994;51.038;16.974;2023-04-01T12:58:56;98578.50;;;12.47;89.63
23635;BME280;11994;51.038;16.974;2023-04-01T13:07:16;98582.56;;;12.44;88.78
23635;BME280;11994;51.038;16.974;2023-04-01T13:20:49;98617.44;;;11.85;90.02
23635;BME280;11994;51.038;16.974;2023-04-01T13:36:55;98630.98;;;11.35;92.57
23635;BME280;11994;51.038;16.974;2023-04-01T13:39:25;98631.19;;;11.38;93.04
23635;BME280;11994;51.038;16.974;2023-04-01T13:44:40;98639.55;;;11.51;93.78
23635;BME280;11994;51.038;16.974;2023-04-01T13:53:33;98634.84;;;11.28;93.12
23635;BME280;11994;51.038;16.974;2023-04-01T13:55:55;98641.24;;;11.16;92.93
23635;BME280;11994;51.038;16.974;2023-04-01T14:14:57;98651.80;;;10.63;92.79
23635;BME280;11994;51.038;16.974;2023-04-01T14:31:42;98651.46;;;10.60;93.96
23635;BME280;11994;51.038;16.974;2023-04-01T14:37:25;98649.62;;;10.68;94.05
23635;BME280;11994;51.038;16.974;2023-04-01T14:40:19;98658.48;;;10.70;94.23
23635;BME280;11994;51.038;16.974;2023-04-01T14:48:32;98663.63;;;10.61;94.49
23635;BME280;11994;51.038;16.974;2023-04-01T14:51:16;98666.22;;;10.61;94.57
23635;BME280;11994;51.038;16.974;2023-04-01T14:54:13;98664.96;;;10.62;94.62
23635;BME280;11994;51.038;16.974;2023-04-01T14:59:32;98664.09;;;10.66;94.86
23635;BME280;11994;51.038;16.974;2023-04-01T15:05:45;98665.71;;;10.82;94.98
23635;BME280;11994;51.038;16.974;2023-04-01T15:16:57;98675.64;;;11.04;95.56
23635;BME280;11994;51.038;16.974;2023-04-01T15:19:55;98670.08;;;11.10;95.54
23635;BME280;11994;51.038;16.974;2023-04-01T15:22:31;98666.10;;;11.13;95.41
23635;BME280;11994;51.038;16.974;2023-04-01T15:33:22;98685.75;;;11.42;96.07
23635;BME280;11994;51.038;16.974;2023-04-01T15:36:03;98687.50;;;11.52;96.28
23635;BME280;11994;51.038;16.974;2023-04-01T15:43:46;98696.35;;;11.71;96.33
23635;BME280;11994;51.038;16.974;2023-04-01T15:46:46;98696.63;;;11.72;95.91
23635;BME280;11994;51.038;16.974;2023-04-01T15:55:06;98710.44;;;11.59;95.31
23635;BME280;11994;51.038;16.974;2023-04-01T16:00:33;98713.66;;;11.57;95.46
23635;BME280;11994;51.038;16.974;2023-04-01T16:03:45;98716.66;;;11.57;95.54
23635;BME280;11994;51.038;16.974;2023-04-01T16:06:14;98718.67;;;11.52;95.33
23635;BME280;11994;51.038;16.974;2023-04-01T16:20:17;98730.98;;;11.54;95.44
23635;BME280;11994;51.038;16.974;2023-04-01T16:25:36;98736.54;;;11.55;95.32
23635;BME280;11994;51.038;16.974;2023-04-01T16:36:13;98745.08;;;11.63;95.16
23635;BME280;11994;51.038;16.974;2023-04-01T16:41:42;98754.29;;;11.54;94.68
23635;BME280;11994;51.038;16.974;2023-04-01T16:46:43;98759.73;;;11.50;94.59
23635;BME280;11994;51.038;16.974;2023-04-01T16:51:45;98764.50;;;11.52;94.64
23635;BME280;11994;51.038;16.974;2023-04-01T16:54:28;98771.15;;;11.53;94.72
23635;BME280;11994;51.038;16.974;2023-04-01T16:57:02;98776.77;;;11.52;94.55
23635;BME280;11994;51.038;16.974;2023-04-01T16:59:38;98781.28;;;11.53;94.37
23635;BME280;11994;51.038;16.974;2023-04-01T17:04:43;98791.59;;;11.53;94.47
23635;BME280;11994;51.038;16.974;2023-04-01T17:15:39;98813.42;;;11.41;94.02
23635;BME280;11994;51.038;16.974;2023-04-01T17:28:58;98836.88;;;11.41;94.13
23635;BME280;11994;51.038;16.974;2023-04-01T17:34:16;98843.77;;;11.43;94.24
23635;BME280;11994;51.038;16.974;2023-04-01T17:48:08;98861.45;;;11.40;94.13
23635;BME280;11994;51.038;16.974;2023-04-01T17:53:58;98868.93;;;11.33;94.18
23635;BME280;11994;51.038;16.974;2023-04-01T17:56:54;98874.98;;;11.28;94.07
23635;BME280;11994;51.038;16.974;2023-04-01T17:59:51;98880.98;;;11.27;94.17
23635;BME280;11994;51.038;16.974;2023-04-01T18:02:40;98882.81;;;11.33;94.24
23635;BME280;11994;51.038;16.974;2023-04-01T18:05:40;98882.48;;;11.39;94.43
23635;BME280;11994;51.038;16.974;2023-04-01T18:23:53;98906.11;;;11.47;93.82
23635;BME280;11994;51.038;16.974;2023-04-01T18:26:22;98907.15;;;11.39;93.70
23635;BME280;11994;51.038;16.974;2023-04-01T18:31:48;98913.59;;;11.37;94.06
23635;BME280;11994;51.038;16.974;2023-04-01T18:37:34;98923.34;;;11.38;93.73
23635;BME280;11994;51.038;16.974;2023-04-01T18:40:20;98923.84;;;11.28;93.97
23635;BME280;11994;51.038;16.974;2023-04-01T18:43:11;98928.83;;;11.25;94.12
23635;BME280;11994;51.038;16.974;2023-04-01T18:46:03;98934.87;;;11.20;93.85
23635;BME280;11994;51.038;16.974;2023-04-01T18:48:52;98937.17;;;11.16;94.08
23635;BME280;11994;51.038;16.974;2023-04-01T18:51:33;98937.68;;;11.12;94.00
23635;BME280;11994;51.038;16.974;2023-04-01T18:54:11;98940.62;;;11.05;94.00
23635;BME280;11994;51.038;16.974;2023-04-01T18:56:40;98947.16;;;11.00;94.04
23635;BME280;11994;51.038;16.974;2023-04-01T19:04:39;98960.65;;;10.92;94.21
23635;BME280;11994;51.038;16.974;2023-04-01T19:09:52;98964.31;;;10.81;94.08
23635;BME280;11994;51.038;16.974;2023-04-01T19:17:52;98969.15;;;10.74;94.51
23635;BME280;11994;51.038;16.974;2023-04-01T19:20:30;98970.38;;;10.78;94.59
23635;BME280;11994;51.038;16.974;2023-04-01T19:25:49;98977.52;;;10.75;94.42
23635;BME280;11994;51.038;16.974;2023-04-01T19:28:26;98980.75;;;10.69;94.32
23635;BME280;11994;51.038;16.974;2023-04-01T19:36:39;98985.15;;;10.53;94.10
23635;BME280;11994;51.038;16.974;2023-04-01T19:42:00;98991.60;;;10.45;94.09
23635;BME280;11994;51.038;16.974;2023-04-01T19:44:43;98997.91;;;10.41;94.03
23635;BME280;11994;51.038;16.974;2023-04-01T19:50:14;98995.35;;;10.35;94.04
23635;BME280;11994;51.038;16.974;2023-04-01T19:52:45;99004.86;;;10.29;93.97
23635;BME280;11994;51.038;16.974;2023-04-01T19:55:18;99006.69;;;10.27;94.12
23635;BME280;11994;51.038;16.974;2023-04-01T19:58:16;99010.51;;;10.28;94.17
23635;BME280;11994;51.038;16.974;2023-04-01T20:06:32;99021.08;;;10.22;94.06
23635;BME280;11994;51.038;16.974;2023-04-01T20:12:04;99028.25;;;10.13;94.07
23635;BME280;11994;51.038;16.974;2023-04-01T20:14:40;99030.76;;;10.08;94.20
23635;BME280;11994;51.038;16.974;2023-04-01T20:17:20;99033.27;;;10.06;94.34
23635;BME280;11994;51.038;16.974;2023-04-01T20:22:38;99036.67;;;10.03;94.45
23635;BME280;11994;51.038;16.974;2023-04-01T20:31:10;99044.12;;;10.05;94.49
23635;BME280;11994;51.038;16.974;2023-04-01T20:42:13;99053.13;;;10.02;94.81
23635;BME280;11994;51.038;16.974;2023-04-01T20:44:49;99059.39;;;10.08;95.13
23635;BME280;11994;51.038;16.974;2023-04-01T20:47:42;99062.77;;;10.07;94.93
23635;BME280;11994;51.038;16.974;2023-04-01T20:50:34;99062.42;;;10.06;95.03
23635;BME280;11994;51.038;16.974;2023-04-01T20:53:20;99060.98;;;10.02;94.88
23635;BME280;11994;51.038;16.974;2023-04-01T21:09:48;99071.91;;;9.91;94.83
23635;BME280;11994;51.038;16.974;2023-04-01T21:12:38;99077.29;;;9.92;94.72
23635;BME280;11994;51.038;16.974;2023-04-01T21:19:26;99082.69;;;9.83;94.72
23635;BME280;11994;51.038;16.974;2023-04-01T21:21:41;99085.64;;;9.79;94.75
23635;BME280;11994;51.038;16.974;2023-04-01T21:26:52;99094.11;;;9.77;94.83
23635;BME280;11994;51.038;16.974;2023-04-01T21:29:33;99097.04;;;9.78;94.93
23635;BME280;11994;51.038;16.974;2023-04-01T21:32:16;99097.07;;;9.77;94.90
23635;BME280;11994;51.038;16.974;2023-04-01T21:34:57;99099.74;;;9.76;95.01
23635;BME280;11994;51.038;16.974;2023-04-01T21:37:36;99105.73;;;9.75;95.02
23635;BME280;11994;51.038;16.974;2023-04-01T21:43:34;99108.33;;;9.75;94.91
23635;BME280;11994;51.038;16.974;2023-04-01T21:49:19;99117.52;;;9.72;95.06
23635;BME280;11994;51.038;16.974;2023-04-01T21:52:00;99118.95;;;9.66;94.94
23635;BME280;11994;51.038;16.974;2023-04-01T22:09:20;99130.63;;;9.62;94.77
23635;BME280;11994;51.038;16.974;2023-04-01T22:15:08;99138.84;;;9.48;94.51
23635;BME280;11994;51.038;16.974;2023-04-01T22:17:54;99140.91;;;9.40;94.74
23635;BME280;11994;51.038;16.974;2023-04-01T22:20:27;99142.40;;;9.32;94.67
23635;BME280;11994;51.038;16.974;2023-04-01T22:28:50;99154.64;;;9.17;94.66
23635;BME280;11994;51.038;16.974;2023-04-01T22:31:24;99160.56;;;9.12;94.61
23635;BME280;11994;51.038;16.974;2023-04-01T22:39:36;99162.90;;;9.05;94.90
23635;BME280;11994;51.038;16.974;2023-04-01T22:42:22;99168.08;;;9.06;95.09
23635;BME280;11994;51.038;16.974;2023-04-01T22:45:02;99168.51;;;9.04;94.99